Time;durP1;ratioP1;P1;durP2;ratioP2;P2;SDS_P1;SDS_P2;PMS_P1;PMS_P2;Temp;Humidity;BMP_temperature;BMP_pressure;BME280_temperature;BME280_humidity;BME280_pressure;Samples;Min_cycle;Max_cycle;Signal;HPM_P1;HPM_P2
2022/08/30 00:01:03;;;;;;;1.83;1.67;;;21.10;57.20;;;;;;5066586;28;20216;-67
2022/08/30 00:03:35;;;;;;;3.80;2.60;;;21.00;57.30;;;;;;5063145;28;20225;-69
2022/08/30 00:06:05;;;;;;;3.17;2.03;;;21.00;57.20;;;;;;5056796;28;20485;-69
2022/08/30 00:08:32;;;;;;;3.00;2.20;;;20.90;57.20;;;;;;5089995;28;20901;-69
2022/08/30 00:10:58;;;;;;;4.63;1.80;;;20.90;57.70;;;;;;5067982;28;20450;-68
2022/08/30 00:13:24;;;;;;;2.03;1.77;;;20.90;57.50;;;;;;5067877;28;20454;-67
2022/08/30 00:15:50;;;;;;;4.73;2.67;;;20.90;57.40;;;;;;5066161;28;20672;-68
2022/08/30 00:18:17;;;;;;;3.77;2.10;;;20.90;57.30;;;;;;5063256;28;20457;-68
2022/08/30 00:20:44;;;;;;;3.20;2.27;;;20.90;57.40;;;;;;5060464;28;20527;-69
2022/08/30 00:23:10;;;;;;;1.67;1.57;;;20.80;57.50;;;;;;5064561;28;20458;-69
2022/08/30 00:25:36;;;;;;;4.53;2.07;;;20.70;57.60;;;;;;5069127;28;20473;-70
2022/08/30 00:28:02;;;;;;;3.47;1.97;;;20.70;57.50;;;;;;5065645;28;20548;-69
2022/08/30 00:30:28;;;;;;;2.67;2.00;;;20.70;57.40;;;;;;5068534;28;20215;-68
2022/08/30 00:32:53;;;;;;;2.37;2.17;;;20.70;57.40;;;;;;5044048;28;20215;-69
2022/08/30 00:35:20;;;;;;;2.13;1.83;;;20.60;57.40;;;;;;5067844;28;20223;-68
2022/08/30 00:37:47;;;;;;;5.80;1.90;;;20.60;57.50;;;;;;5054470;28;20292;-69
2022/08/30 00:40:14;;;;;;;2.47;1.80;;;20.60;57.70;;;;;;5065141;28;20493;-67
2022/08/30 00:42:41;;;;;;;2.30;2.07;;;20.60;57.70;;;;;;5061320;28;20481;-69
2022/08/30 00:45:15;;;;;;;3.67;1.90;;;20.60;57.60;;;;;;5051353;28;20972;-69
2022/08/30 00:47:41;;;;;;;3.67;2.30;;;20.50;57.50;;;;;;5070094;28;20446;-69
2022/08/30 00:50:08;;;;;;;5.80;2.30;;;20.50;57.50;;;;;;5051318;28;20996;-69
2022/08/30 00:52:36;;;;;;;2.43;2.20;;;20.50;57.50;;;;;;5065913;28;20231;-69
2022/08/30 00:55:04;;;;;;;2.53;2.30;;;20.50;57.50;;;;;;5063068;28;20462;-69
2022/08/30 00:57:30;;;;;;;2.97;2.67;;;20.50;57.60;;;;;;5066160;28;20469;-69
2022/08/30 00:59:57;;;;;;;3.20;1.90;;;20.40;57.60;;;;;;5066816;28;20811;-69
2022/08/30 01:02:24;;;;;;;3.43;1.90;;;20.40;57.60;;;;;;5057252;28;20477;-68
2022/08/30 01:04:50;;;;;;;3.47;2.20;;;20.40;57.70;;;;;;5061726;28;20461;-69
2022/08/30 01:07:17;;;;;;;2.27;1.80;;;20.40;57.70;;;;;;5063899;28;20458;-67
2022/08/30 01:09:43;;;;;;;4.83;1.90;;;20.30;57.80;;;;;;5063767;28;20682;-69
2022/08/30 01:12:09;;;;;;;3.03;2.00;;;20.20;57.90;;;;;;5066344;28;20457;-68
2022/08/30 01:14:36;;;;;;;6.47;2.17;;;20.10;57.90;;;;;;5067847;28;20461;-68
2022/08/30 01:17:03;;;;;;;6.27;2.13;;;20.10;57.90;;;;;;5060412;28;20532;-68
2022/08/30 01:19:54;;;;;;;2.53;2.00;;;20.10;58.00;;;;;;5065388;28;20550;-68
2022/08/30 01:22:47;;;;;;;2.03;1.87;;;20.10;58.00;;;;;;5050244;28;20556;-68
2022/08/30 01:25:21;;;;;;;2.90;2.00;;;20.10;57.80;;;;;;5066620;28;20453;-69
2022/08/30 01:27:52;;;;;;;2.80;2.07;;;20.10;57.90;;;;;;5056890;28;20450;-69
2022/08/30 01:30:18;;;;;;;2.70;2.27;;;20.10;57.90;;;;;;5049709;28;20534;-69
2022/08/30 01:32:46;;;;;;;10.30;2.50;;;20.00;57.90;;;;;;5057845;28;20541;-69
2022/08/30 01:35:16;;;;;;;5.23;2.40;;;20.00;57.90;;;;;;5066123;28;20227;-69
2022/08/30 01:37:43;;;;;;;2.97;2.20;;;20.00;57.90;;;;;;5063514;28;21033;-69
2022/08/30 01:40:09;;;;;;;2.03;1.87;;;20.00;57.90;;;;;;5052997;28;20450;-69
2022/08/30 01:42:35;;;;;;;2.00;1.80;;;20.00;57.90;;;;;;5064287;28;20512;-69
2022/08/30 01:45:02;;;;;;;2.20;1.70;;;19.90;57.80;;;;;;5063706;28;20482;-69
2022/08/30 01:47:28;;;;;;;3.90;2.33;;;19.90;57.90;;;;;;5048831;28;20231;-70
2022/08/30 01:49:54;;;;;;;2.13;1.93;;;19.90;57.90;;;;;;5059076;28;20449;-67
2022/08/30 01:52:20;;;;;;;1.97;1.87;;;19.90;57.90;;;;;;5066448;28;20302;-69
2022/08/30 01:54:46;;;;;;;2.30;2.07;;;19.90;57.90;;;;;;5063708;28;20215;-68
2022/08/30 01:57:15;;;;;;;3.20;2.00;;;19.90;57.90;;;;;;5063638;28;20234;-68
2022/08/30 01:59:46;;;;;;;2.20;2.00;;;19.80;57.90;;;;;;5063195;28;20215;-69
2022/08/30 02:02:16;;;;;;;7.27;1.90;;;19.80;57.90;;;;;;5058912;28;20481;-68
2022/08/30 02:04:43;;;;;;;4.20;2.40;;;19.80;58.00;;;;;;5060812;28;20459;-68
2022/08/30 02:07:09;;;;;;;3.20;2.00;;;19.80;57.90;;;;;;5048811;28;20458;-68
2022/08/30 02:09:36;;;;;;;2.30;1.80;;;19.70;57.90;;;;;;5054792;28;20438;-69
2022/08/30 02:12:05;;;;;;;2.03;1.73;;;19.70;58.00;;;;;;5062502;28;20447;-69
2022/08/30 02:14:31;;;;;;;2.87;2.00;;;19.70;58.00;;;;;;5065878;28;20509;-68
2022/08/30 02:16:56;;;;;;;4.50;1.73;;;19.60;58.00;;;;;;5065570;28;20458;-67
2022/08/30 02:19:22;;;;;;;2.70;1.80;;;19.60;58.00;;;;;;5057430;28;20465;-68
2022/08/30 02:21:48;;;;;;;2.77;2.30;;;19.60;57.90;;;;;;5062451;28;20219;-68
2022/08/30 02:24:14;;;;;;;3.50;2.40;;;19.60;58.00;;;;;;5049387;28;20211;-69
2022/08/30 02:26:41;;;;;;;2.93;2.43;;;19.50;57.90;;;;;;5067360;28;20830;-69
2022/08/30 02:29:07;;;;;;;2.60;1.80;;;19.60;58.00;;;;;;5065710;28;20215;-69
2022/08/30 02:31:34;;;;;;;2.77;1.53;;;19.50;58.00;;;;;;5065164;28;20493;-69
2022/08/30 02:34:00;;;;;;;2.40;1.80;;;19.50;58.00;;;;;;5079062;28;20449;-69
2022/08/30 02:36:25;;;;;;;4.10;1.83;;;19.50;58.00;;;;;;5064713;28;20980;-68
2022/08/30 02:38:51;;;;;;;2.20;2.00;;;19.50;58.00;;;;;;5063041;28;20223;-69
2022/08/30 02:41:18;;;;;;;3.87;2.43;;;19.50;58.00;;;;;;5062857;28;20292;-68
2022/08/30 02:43:44;;;;;;;2.20;2.00;;;19.50;58.00;;;;;;5061857;28;20235;-69
2022/08/30 02:46:10;;;;;;;2.30;1.60;;;19.50;58.40;;;;;;5057899;28;20457;-67
2022/08/30 02:48:36;;;;;;;3.93;2.10;;;19.40;58.00;;;;;;5062558;28;20276;-67
2022/08/30 02:51:07;;;;;;;2.53;2.00;;;19.40;58.00;;;;;;5058540;28;20216;-69
2022/08/30 02:53:33;;;;;;;2.23;1.60;;;19.40;58.10;;;;;;5045151;28;20302;-68
2022/08/30 02:55:58;;;;;;;1.97;1.77;;;19.40;58.50;;;;;;5065392;28;21008;-69
2022/08/30 02:58:24;;;;;;;4.43;2.07;;;19.30;58.10;;;;;;5064217;28;20230;-69
2022/08/30 03:00:50;;;;;;;3.47;2.13;;;19.30;58.10;;;;;;5062612;28;20223;-69
2022/08/30 03:03:15;;;;;;;2.17;2.00;;;19.30;58.20;;;;;;5081647;28;20225;-68
2022/08/30 03:05:41;;;;;;;2.73;2.03;;;19.30;58.20;;;;;;5059460;28;20581;-68
2022/08/30 03:08:08;;;;;;;2.70;2.03;;;19.20;58.30;;;;;;5062411;28;20273;-69
2022/08/30 03:10:34;;;;;;;2.43;2.23;;;19.20;58.20;;;;;;5043937;28;20226;-68
2022/08/30 03:13:01;;;;;;;5.33;2.43;;;19.20;58.30;;;;;;5059003;28;20480;-69
2022/08/30 03:15:26;;;;;;;3.10;2.00;;;19.20;58.30;;;;;;5065464;28;20480;-69
2022/08/30 03:17:53;;;;;;;3.50;2.40;;;19.20;58.30;;;;;;5067730;28;21004;-68
2022/08/30 03:20:20;;;;;;;2.43;1.90;;;19.20;58.40;;;;;;5053837;28;20583;-68
2022/08/30 03:22:47;;;;;;;5.63;2.90;;;19.10;58.40;;;;;;5061619;28;20473;-69
2022/08/30 03:25:13;;;;;;;2.77;1.80;;;19.10;58.40;;;;;;5062151;28;20458;-69
2022/08/30 03:27:39;;;;;;;3.47;2.07;;;19.10;58.40;;;;;;5062130;28;20495;-69
2022/08/30 03:30:06;;;;;;;4.40;2.27;;;19.10;58.40;;;;;;5065095;28;20861;-69
2022/08/30 03:32:32;;;;;;;7.10;3.17;;;19.10;58.50;;;;;;5046682;28;20219;-69
2022/08/30 03:34:58;;;;;;;2.07;1.77;;;19.00;58.50;;;;;;5053877;28;20507;-68
2022/08/30 03:37:25;;;;;;;2.63;2.10;;;19.00;58.60;;;;;;5064471;28;20318;-69
2022/08/30 03:39:50;;;;;;;2.93;1.67;;;19.00;58.60;;;;;;5063851;28;20340;-68
2022/08/30 03:42:16;;;;;;;3.30;2.37;;;18.90;58.60;;;;;;5064909;28;20968;-68
2022/08/30 03:44:42;;;;;;;4.37;2.07;;;18.90;58.50;;;;;;5063305;28;20243;-68
2022/08/30 03:47:08;;;;;;;2.57;1.73;;;18.90;58.60;;;;;;5064496;28;20211;-69
2022/08/30 03:49:34;;;;;;;2.90;2.23;;;18.90;58.60;;;;;;5046625;28;20306;-69
2022/08/30 03:52:00;;;;;;;2.43;1.93;;;18.90;58.50;;;;;;5053953;28;20219;-69
2022/08/30 03:54:25;;;;;;;2.27;2.07;;;18.90;58.50;;;;;;5066837;28;20455;-69
2022/08/30 03:56:51;;;;;;;2.80;1.90;;;18.90;58.50;;;;;;5063096;28;20313;-69
2022/08/30 03:59:17;;;;;;;2.17;1.97;;;18.80;58.70;;;;;;5064862;28;20302;-69
2022/08/30 04:01:44;;;;;;;3.20;2.50;;;18.80;58.80;;;;;;5060385;27;20518;-69
2022/08/30 04:04:10;;;;;;;5.27;2.60;;;18.80;58.70;;;;;;5065254;28;20306;-68
2022/08/30 04:06:36;;;;;;;2.30;1.87;;;18.80;58.70;;;;;;5059231;28;20466;-69
2022/08/30 04:09:03;;;;;;;3.10;2.10;;;18.80;58.70;;;;;;5051881;28;20461;-68
2022/08/30 04:11:28;;;;;;;3.07;2.00;;;18.80;58.70;;;;;;5082967;28;20453;-68
2022/08/30 04:13:55;;;;;;;4.80;2.50;;;18.70;58.80;;;;;;5065890;28;20445;-68
2022/08/30 04:16:22;;;;;;;5.90;2.33;;;18.70;58.90;;;;;;5070878;28;20226;-69
2022/08/30 04:18:48;;;;;;;2.77;2.30;;;18.70;58.80;;;;;;5061045;28;20962;-69
2022/08/30 04:21:14;;;;;;;4.10;2.77;;;18.70;59.30;;;;;;5067346;28;20465;-68
2022/08/30 04:23:41;;;;;;;2.53;2.33;;;18.70;59.00;;;;;;5053720;28;20703;-69
2022/08/30 04:26:07;;;;;;;2.70;1.83;;;18.60;59.00;;;;;;5031819;28;20458;-68
2022/08/30 04:28:34;;;;;;;5.17;2.30;;;18.60;59.00;;;;;;5043885;28;20556;-68
2022/08/30 04:31:05;;;;;;;7.10;2.30;;;18.60;59.20;;;;;;5051817;28;20226;-68
2022/08/30 04:33:34;;;;;;;2.33;2.10;;;18.60;59.10;;;;;;5066777;27;20485;-69
2022/08/30 04:36:05;;;;;;;3.80;2.20;;;18.60;59.10;;;;;;5043693;28;20458;-69
2022/08/30 04:38:31;;;;;;;2.20;2.00;;;18.50;59.00;;;;;;5067963;28;20555;-69
2022/08/30 04:40:57;;;;;;;2.23;2.03;;;18.50;59.10;;;;;;5074744;28;20457;-69
2022/08/30 04:43:25;;;;;;;2.13;1.97;;;18.50;59.00;;;;;;5065645;28;20564;-69
2022/08/30 04:45:52;;;;;;;6.43;2.47;;;18.50;59.00;;;;;;5065036;28;20675;-68
2022/08/30 04:48:18;;;;;;;4.57;2.43;;;18.50;59.30;;;;;;5067282;28;20456;-67
2022/08/30 04:50:44;;;;;;;5.67;2.40;;;18.40;59.30;;;;;;5071977;28;20487;-68
2022/08/30 04:53:12;;;;;;;4.03;2.33;;;18.40;59.20;;;;;;5066796;28;20453;-69
2022/08/30 04:55:39;;;;;;;2.93;2.30;;;18.40;59.30;;;;;;5037339;28;20458;-67
2022/08/30 04:58:05;;;;;;;3.90;2.00;;;18.40;59.20;;;;;;5052704;28;20457;-69
2022/08/30 05:00:31;;;;;;;2.90;2.10;;;18.40;59.30;;;;;;5066031;28;20842;-69
2022/08/30 05:02:57;;;;;;;2.70;2.33;;;18.40;59.10;;;;;;5050196;28;20231;-68
2022/08/30 05:05:41;;;;;;;4.33;2.03;;;18.40;59.30;;;;;;5067243;28;20265;-69
2022/08/30 05:08:13;;;;;;;4.53;2.40;;;18.40;59.40;;;;;;5061741;28;20226;-67
2022/08/30 05:10:46;;;;;;;3.33;2.70;;;18.30;59.30;;;;;;5060531;28;20538;-69
2022/08/30 05:13:13;;;;;;;4.23;1.90;;;18.30;59.10;;;;;;5058464;28;20961;-69
2022/08/30 05:15:39;;;;;;;5.43;2.20;;;18.30;59.40;;;;;;5065012;28;20469;-69
2022/08/30 05:18:06;;;;;;;3.33;2.20;;;18.30;59.30;;;;;;5073689;28;20499;-68
2022/08/30 05:20:33;;;;;;;4.20;2.50;;;18.30;59.50;;;;;;5049577;28;20466;-68
2022/08/30 05:23:00;;;;;;;3.40;2.33;;;18.30;59.60;;;;;;5066589;28;20545;-69
2022/08/30 05:25:29;;;;;;;3.63;2.57;;;18.30;59.50;;;;;;5067002;28;20499;-68
2022/08/30 05:27:55;;;;;;;3.60;2.37;;;18.30;59.50;;;;;;5064799;28;20481;-67
2022/08/30 05:30:22;;;;;;;4.17;2.47;;;18.30;59.40;;;;;;5023134;28;20467;-67
2022/08/30 05:32:48;;;;;;;3.00;2.40;;;18.30;60.50;;;;;;5044828;28;20450;-70
2022/08/30 05:35:16;;;;;;;3.33;2.30;;;18.30;60.80;;;;;;5059198;28;20868;-67
2022/08/30 05:37:42;;;;;;;3.50;2.30;;;18.30;60.00;;;;;;5055441;28;20469;-69
2022/08/30 05:40:09;;;;;;;5.50;2.20;;;18.30;60.50;;;;;;5054851;28;20455;-68
2022/08/30 05:42:35;;;;;;;2.20;2.00;;;18.30;60.30;;;;;;5060621;28;20494;-69
2022/08/30 05:45:02;;;;;;;4.57;3.07;;;18.30;59.90;;;;;;5055431;28;20460;-69
2022/08/30 05:47:28;;;;;;;3.07;2.30;;;18.30;59.80;;;;;;5058363;28;20455;-68
2022/08/30 05:49:54;;;;;;;3.03;2.23;;;18.30;59.90;;;;;;5078765;28;20457;-68
2022/08/30 05:52:19;;;;;;;2.50;2.30;;;18.30;59.90;;;;;;5064828;28;20767;-69
2022/08/30 05:54:52;;;;;;;4.60;2.10;;;18.30;60.50;;;;;;5058653;28;20281;-68
2022/08/30 05:57:18;;;;;;;6.23;2.37;;;18.40;60.60;;;;;;5056003;28;20307;-68
2022/08/30 05:59:44;;;;;;;3.23;2.50;;;18.40;61.10;;;;;;5061917;28;20805;-68
2022/08/30 06:02:10;;;;;;;4.80;2.07;;;18.40;61.10;;;;;;5058469;28;20488;-69
2022/08/30 06:04:36;;;;;;;4.83;2.73;;;18.40;61.10;;;;;;5063374;28;20686;-69
2022/08/30 06:07:02;;;;;;;2.87;2.10;;;18.40;62.30;;;;;;5060474;28;20219;-69
2022/08/30 06:09:28;;;;;;;7.57;3.00;;;18.50;61.60;;;;;;5059546;28;20729;-69
2022/08/30 06:11:54;;;;;;;3.60;2.40;;;18.50;61.90;;;;;;5060814;28;20469;-69
2022/08/30 06:14:20;;;;;;;2.77;2.57;;;18.50;61.80;;;;;;5062067;28;20215;-69
2022/08/30 06:16:46;;;;;;;2.80;2.53;;;18.50;62.30;;;;;;5060817;28;20207;-69
2022/08/30 06:19:13;;;;;;;3.03;2.63;;;18.50;61.90;;;;;;5055442;28;20458;-69
2022/08/30 06:21:39;;;;;;;2.67;2.10;;;18.50;62.70;;;;;;5051466;28;20207;-69
2022/08/30 06:24:07;;;;;;;3.20;2.20;;;18.50;62.10;;;;;;5062909;28;20481;-68
2022/08/30 06:26:39;;;;;;;4.40;2.80;;;18.50;62.60;;;;;;5061137;28;20568;-69
2022/08/30 06:29:05;;;;;;;3.90;2.53;;;18.50;62.40;;;;;;5060027;28;20488;-69
2022/08/30 06:31:31;;;;;;;3.73;1.93;;;18.50;62.40;;;;;;5064266;28;20910;-69
2022/08/30 06:33:56;;;;;;;4.87;2.10;;;18.60;62.60;;;;;;5058145;28;20219;-69
2022/08/30 06:36:23;;;;;;;2.83;2.10;;;18.60;63.20;;;;;;5060472;28;20718;-69
2022/08/30 06:38:51;;;;;;;2.30;1.97;;;18.60;63.40;;;;;;5057575;28;20281;-68
2022/08/30 06:41:21;;;;;;;3.03;2.23;;;18.70;63.20;;;;;;5059764;28;20454;-69
2022/08/30 06:43:47;;;;;;;7.13;2.63;;;18.70;63.20;;;;;;5050558;28;20821;-68
2022/08/30 06:46:15;;;;;;;3.53;2.47;;;18.80;63.70;;;;;;5060038;28;20464;-69
2022/08/30 06:48:41;;;;;;;2.93;2.00;;;18.80;63.30;;;;;;5040045;28;20222;-69
2022/08/30 06:51:07;;;;;;;3.03;1.73;;;18.90;63.70;;;;;;5063752;28;20449;-69
2022/08/30 06:53:33;;;;;;;2.40;2.10;;;18.90;64.20;;;;;;5060860;28;20226;-69
2022/08/30 06:56:10;;;;;;;1.80;1.70;;;19.00;64.50;;;;;;5051627;28;20974;-68
2022/08/30 06:58:37;;;;;;;2.50;1.83;;;19.10;64.70;;;;;;5063186;28;20453;-69
2022/08/30 07:01:04;;;;;;;2.57;2.23;;;19.10;64.80;;;;;;5054648;28;20446;-68
2022/08/30 07:03:30;;;;;;;2.90;2.07;;;19.20;64.90;;;;;;5062015;28;20475;-67
2022/08/30 07:05:56;;;;;;;2.77;1.90;;;19.20;64.70;;;;;;5056952;28;20991;-68
2022/08/30 07:08:23;;;;;;;7.63;1.90;;;19.30;65.30;;;;;;5062139;28;20309;-70
2022/08/30 07:10:50;;;;;;;6.93;2.13;;;19.40;65.40;;;;;;5049806;28;20464;-69
2022/08/30 07:13:18;;;;;;;2.90;2.00;;;19.40;65.30;;;;;;5059225;28;20485;-69
2022/08/30 07:15:44;;;;;;;6.00;2.43;;;19.50;64.90;;;;;;5061198;28;20516;-68
2022/08/30 07:20:56;;;;;;;2.43;2.17;;;19.70;66.10;;;;;;5071100;28;20526;-69
2022/08/30 07:23:22;;;;;;;3.27;2.17;;;19.70;66.10;;;;;;5044023;28;20510;-69
2022/08/30 07:25:49;;;;;;;3.27;2.27;;;19.80;66.30;;;;;;5051224;28;20461;-70
2022/08/30 07:28:15;;;;;;;2.33;2.13;;;19.90;66.10;;;;;;5060233;28;20454;-69
2022/08/30 07:30:41;;;;;;;3.80;2.20;;;20.00;66.30;;;;;;5057793;28;20462;-69
2022/08/30 07:33:08;;;;;;;2.50;2.10;;;20.10;65.90;;;;;;5061152;28;20259;-69
2022/08/30 07:35:34;;;;;;;5.20;2.90;;;20.20;66.10;;;;;;5062186;28;20481;-69
2022/08/30 07:38:00;;;;;;;4.60;2.30;;;20.30;66.10;;;;;;5065475;28;20534;-68
2022/08/30 07:40:26;;;;;;;3.03;2.40;;;20.40;65.90;;;;;;5048439;28;21002;-67
2022/08/30 07:42:52;;;;;;;3.40;2.37;;;20.40;65.80;;;;;;5054742;28;20228;-69
2022/08/30 07:45:17;;;;;;;3.03;2.20;;;20.50;65.90;;;;;;5067010;28;20303;-69
2022/08/30 07:47:44;;;;;;;3.87;2.33;;;20.60;65.70;;;;;;5062737;28;20219;-69
2022/08/30 07:50:10;;;;;;;6.47;2.40;;;20.70;65.80;;;;;;5049798;28;20252;-69
2022/08/30 07:52:36;;;;;;;2.70;1.97;;;20.70;65.70;;;;;;5075891;27;20458;-69
2022/08/30 07:55:02;;;;;;;4.87;2.73;;;20.80;65.80;;;;;;5049533;28;20813;-69
2022/08/30 07:57:32;;;;;;;9.00;2.83;;;20.90;66.10;;;;;;5066977;28;20241;-69
2022/08/30 07:59:58;;;;;;;2.90;2.57;;;21.00;65.80;;;;;;5063446;28;20832;-69
2022/08/30 08:02:24;;;;;;;4.57;2.70;;;21.10;65.80;;;;;;5065515;28;20490;-66
2022/08/30 08:04:49;;;;;;;4.87;2.60;;;21.20;65.60;;;;;;5066188;28;20450;-67
2022/08/30 08:07:15;;;;;;;2.70;2.43;;;21.30;65.90;;;;;;5066293;28;20219;-69
2022/08/30 08:09:41;;;;;;;5.63;2.90;;;21.40;65.90;;;;;;5071067;28;20240;-69
2022/08/30 08:12:08;;;;;;;5.37;2.63;;;21.50;65.80;;;;;;5069103;28;20265;-68
2022/08/30 08:14:34;;;;;;;2.97;2.17;;;21.60;65.70;;;;;;5048472;28;20207;-69
2022/08/30 08:17:00;;;;;;;4.40;2.60;;;21.60;65.60;;;;;;5074675;28;20456;-69
2022/08/30 08:19:26;;;;;;;2.43;2.23;;;21.70;65.50;;;;;;5049048;28;20475;-69
2022/08/30 08:21:56;;;;;;;3.90;2.60;;;21.70;65.30;;;;;;5060653;28;20973;-69
2022/08/30 08:24:26;;;;;;;3.93;2.90;;;21.80;65.30;;;;;;5065345;28;20301;-68
2022/08/30 08:26:52;;;;;;;3.80;2.70;;;21.90;65.20;;;;;;5046038;28;20489;-68
2022/08/30 08:29:19;;;;;;;4.20;3.00;;;21.90;65.80;;;;;;5063314;28;20484;-69
2022/08/30 08:31:45;;;;;;;5.67;3.43;;;22.00;65.10;;;;;;5057989;28;20349;-69
2022/08/30 08:34:12;;;;;;;4.97;3.00;;;22.10;64.90;;;;;;5059949;28;20441;-69
2022/08/30 08:36:39;;;;;;;3.27;2.10;;;22.10;65.00;;;;;;5044990;28;20441;-69
2022/08/30 08:39:07;;;;;;;8.67;2.83;;;22.20;65.10;;;;;;5055560;28;20460;-69
2022/08/30 08:41:35;;;;;;;3.87;2.93;;;22.20;64.90;;;;;;5066737;28;20476;-68
2022/08/30 08:44:12;;;;;;;8.00;3.20;;;22.30;64.70;;;;;;5061769;28;20473;-68
2022/08/30 08:46:51;;;;;;;3.50;2.80;;;22.40;64.60;;;;;;5063873;28;20463;-69
2022/08/30 08:49:17;;;;;;;2.30;1.90;;;22.50;65.50;;;;;;5056977;28;20457;-68
2022/08/30 08:54:41;;;;;;;5.63;2.90;;;22.60;64.80;;;;;;5065229;28;20249;-69
2022/08/30 08:57:09;;;;;;;4.03;2.50;;;22.70;64.60;;;;;;5048009;28;20571;-70
2022/08/30 08:59:36;;;;;;;4.30;2.87;;;22.80;64.50;;;;;;5075700;28;20453;-68
2022/08/30 09:02:23;;;;;;;4.67;2.77;;;22.80;64.50;;;;;;5061366;28;20492;-69
2022/08/30 09:04:52;;;;;;;4.30;2.37;;;22.90;63.90;;;;;;5066143;28;20466;-69
2022/08/30 09:07:23;;;;;;;3.80;2.40;;;23.00;63.90;;;;;;5057022;28;20477;-68
2022/08/30 09:09:49;;;;;;;2.27;2.00;;;23.10;63.40;;;;;;5059878;28;20464;-69
2022/08/30 09:12:15;;;;;;;3.07;2.70;;;23.20;63.40;;;;;;5062711;28;20471;-70
2022/08/30 09:14:51;;;;;;;3.30;2.30;;;23.30;63.50;;;;;;5059673;28;20544;-68
2022/08/30 09:17:18;;;;;;;2.53;2.33;;;23.50;63.20;;;;;;5057096;28;20210;-68
2022/08/30 09:19:45;;;;;;;2.63;2.43;;;23.50;63.00;;;;;;5057011;28;20456;-68
2022/08/30 09:22:29;;;;;;;3.10;2.90;;;23.60;62.70;;;;;;5059446;28;20877;-69
2022/08/30 09:25:09;;;;;;;3.10;2.80;;;23.70;62.90;;;;;;5038108;28;20464;-69
2022/08/30 09:27:38;;;;;;;2.60;2.40;;;23.80;62.80;;;;;;5049042;28;20460;-68
2022/08/30 09:30:24;;;;;;;3.53;2.43;;;23.90;62.60;;;;;;5063933;28;20459;-69
2022/08/30 09:33:01;;;;;;;3.20;2.50;;;24.00;62.30;;;;;;5045019;28;20453;-70
2022/08/30 09:35:48;;;;;;;8.43;4.00;;;24.10;62.60;;;;;;5048312;28;20461;-69
2022/08/30 09:38:29;;;;;;;3.63;2.70;;;24.30;62.20;;;;;;5053738;28;20445;-69
2022/08/30 09:40:57;;;;;;;3.67;2.90;;;24.30;61.60;;;;;;5066008;28;20461;-68
2022/08/30 09:43:32;;;;;;;4.37;2.73;;;24.40;61.60;;;;;;5054939;28;20478;-69
2022/08/30 09:45:57;;;;;;;3.57;2.90;;;24.50;61.20;;;;;;5048238;28;20518;-70
2022/08/30 09:48:26;;;;;;;3.87;2.30;;;24.60;61.40;;;;;;5063064;28;20449;-69
2022/08/30 09:51:21;;;;;;;4.17;2.93;;;24.60;61.10;;;;;;5066901;28;20255;-69
2022/08/30 09:54:08;;;;;;;2.70;2.50;;;24.80;61.40;;;;;;5046903;28;20552;-69
2022/08/30 09:56:55;;;;;;;2.50;2.30;;;24.80;60.90;;;;;;5061880;28;20464;-69
2022/08/30 09:59:46;;;;;;;2.93;2.63;;;24.90;60.60;;;;;;5058284;28;20953;-68
2022/08/30 10:02:46;;;;;;;3.17;2.40;;;25.00;60.50;;;;;;5060110;28;20453;-69
2022/08/30 10:05:29;;;;;;;5.10;2.67;;;25.10;59.90;;;;;;5058383;28;20449;-67
2022/08/30 10:08:04;;;;;;;4.20;2.20;;;25.10;59.70;;;;;;5059785;28;20469;-70
2022/08/30 10:10:47;;;;;;;3.03;2.63;;;25.20;59.60;;;;;;5047008;28;20541;-69
2022/08/30 10:13:15;;;;;;;3.93;3.07;;;25.30;59.50;;;;;;5044495;28;20462;-69
2022/08/30 10:16:17;;;;;;;7.83;3.03;;;25.40;59.40;;;;;;5060248;28;20545;-69
2022/08/30 10:18:55;;;;;;;2.57;2.37;;;25.60;58.90;;;;;;5035151;28;20445;-69
2022/08/30 10:21:30;;;;;;;3.87;2.57;;;25.60;58.70;;;;;;5064871;28;21067;-68
2022/08/30 10:24:06;;;;;;;5.10;2.77;;;25.70;57.90;;;;;;5067785;28;20981;-70
2022/08/30 10:26:41;;;;;;;3.80;3.00;;;25.60;58.20;;;;;;5073102;28;20976;-69
2022/08/30 10:29:27;;;;;;;3.83;2.30;;;25.80;58.20;;;;;;5047695;28;20455;-68
2022/08/30 10:32:11;;;;;;;4.70;2.10;;;25.90;58.30;;;;;;5057709;28;20469;-69
2022/08/30 10:34:44;;;;;;;2.27;2.10;;;25.90;57.60;;;;;;5052286;28;20463;-70
2022/08/30 10:37:15;;;;;;;3.60;2.80;;;26.00;57.70;;;;;;5059173;28;20464;-68
2022/08/30 10:39:45;;;;;;;3.70;2.83;;;26.00;57.20;;;;;;5054514;28;20549;-68
2022/08/30 10:42:32;;;;;;;2.60;2.40;;;26.00;57.30;;;;;;5078736;28;20453;-69
2022/08/30 10:45:10;;;;;;;2.87;2.47;;;26.10;57.20;;;;;;5062860;28;20455;-69
2022/08/30 10:47:46;;;;;;;3.17;2.87;;;26.20;57.20;;;;;;5063656;28;20466;-69
2022/08/30 10:50:23;;;;;;;2.83;2.63;;;26.30;57.10;;;;;;5045411;28;20455;-69
2022/08/30 10:52:55;;;;;;;4.93;2.83;;;26.40;57.00;;;;;;5060807;28;20475;-69
2022/08/30 10:55:45;;;;;;;3.57;3.23;;;26.40;56.50;;;;;;5074074;28;20472;-70
2022/08/30 10:58:14;;;;;;;4.33;2.70;;;26.40;56.30;;;;;;5061489;28;20485;-69
2022/08/30 11:00:55;;;;;;;3.77;2.10;;;26.50;56.40;;;;;;5059124;28;20451;-68
2022/08/30 11:03:24;;;;;;;2.67;2.47;;;26.60;56.60;;;;;;5071837;28;20476;-69
2022/08/30 11:06:14;;;;;;;3.20;2.53;;;26.70;56.30;;;;;;5055933;28;20471;-69
2022/08/30 11:09:16;;;;;;;3.93;2.80;;;26.70;56.00;;;;;;5062257;28;20490;-68
2022/08/30 11:11:53;;;;;;;2.97;2.50;;;26.70;55.50;;;;;;5044231;28;20514;-69
2022/08/30 11:14:20;;;;;;;3.17;2.97;;;26.80;56.10;;;;;;5056823;28;20461;-70
2022/08/30 11:16:48;;;;;;;5.30;2.60;;;27.00;56.20;;;;;;5046141;28;20480;-70
2022/08/30 11:19:35;;;;;;;2.80;2.60;;;27.10;55.50;;;;;;5045355;28;20852;-68
2022/08/30 11:22:23;;;;;;;2.80;2.60;;;27.00;55.60;;;;;;5064801;28;20451;-69
2022/08/30 11:25:10;;;;;;;5.03;2.90;;;27.00;55.60;;;;;;5064364;28;20461;-70
2022/08/30 11:27:45;;;;;;;4.20;3.00;;;27.00;55.40;;;;;;5065003;28;20458;-69
2022/08/30 11:30:40;;;;;;;5.60;2.40;;;27.20;55.70;;;;;;5065592;28;20810;-69
2022/08/30 11:33:28;;;;;;;2.77;2.43;;;27.20;55.80;;;;;;5031546;28;20462;-69
2022/08/30 11:35:54;;;;;;;3.20;2.57;;;27.40;55.70;;;;;;5066969;28;20452;-69
2022/08/30 11:38:25;;;;;;;4.07;2.70;;;27.40;55.50;;;;;;5058841;28;20457;-69
2022/08/30 11:40:54;;;;;;;3.07;2.77;;;27.60;55.40;;;;;;5064750;28;20231;-70
2022/08/30 11:43:38;;;;;;;10.23;3.70;;;27.70;54.70;;;;;;5065006;28;20570;-69
2022/08/30 11:46:34;;;;;;;2.80;2.60;;;27.80;54.90;;;;;;5052109;28;20224;-69
2022/08/30 11:49:15;;;;;;;3.47;3.17;;;28.00;54.60;;;;;;5064269;28;20773;-67
2022/08/30 11:52:06;;;;;;;3.28;2.95;;;28.10;54.60;;;;;;5058012;28;20274;-70
2022/08/30 11:54:59;;;;;;;3.85;3.38;;;28.10;54.90;;;;;;5073873;28;20223;-69
2022/08/30 11:57:54;;;;;;;3.63;3.33;;;28.10;54.50;;;;;;5067816;28;20306;-69
2022/08/30 12:00:31;;;;;;;3.17;2.92;;;28.10;54.50;;;;;;5045966;28;20304;-70
2022/08/30 12:03:19;;;;;;;3.03;2.83;;;28.10;54.30;;;;;;5057742;28;20237;-70
2022/08/30 12:05:56;;;;;;;3.42;2.58;;;28.10;54.00;;;;;;5064310;28;20232;-69
2022/08/30 12:08:27;;;;;;;3.10;2.78;;;28.10;54.20;;;;;;5063535;28;20244;-68
2022/08/30 12:10:56;;;;;;;3.10;2.80;;;27.80;54.00;;;;;;5064801;28;20222;-69
2022/08/30 12:13:35;;;;;;;3.95;3.58;;;27.80;54.40;;;;;;5049398;28;20228;-70
2022/08/30 12:16:12;;;;;;;5.85;3.28;;;28.00;54.60;;;;;;5061444;28;20319;-70
2022/08/30 12:18:47;;;;;;;8.40;3.15;;;28.20;54.30;;;;;;5063108;28;20249;-70
2022/08/30 12:21:13;;;;;;;2.95;2.58;;;28.30;54.20;;;;;;5068193;28;20246;-70
2022/08/30 12:24:02;;;;;;;3.75;2.92;;;28.30;54.10;;;;;;5080584;28;20782;-70
2022/08/30 12:26:48;;;;;;;3.63;3.25;;;28.40;53.70;;;;;;5067771;28;20257;-69
2022/08/30 12:29:13;;;;;;;3.50;3.20;;;28.30;53.50;;;;;;5050104;28;20236;-70
2022/08/30 12:31:51;;;;;;;5.78;2.90;;;28.10;53.30;;;;;;5039384;28;20238;-70
2022/08/30 12:34:47;;;;;;;3.50;3.20;;;28.30;53.70;;;;;;5059650;28;20228;-70
2022/08/30 12:37:32;;;;;;;3.75;3.05;;;28.40;53.80;;;;;;5073082;28;20234;-69
2022/08/30 12:40:13;;;;;;;3.00;2.70;;;28.80;53.30;;;;;;5054907;28;20774;-70
2022/08/30 12:43:03;;;;;;;3.53;3.22;;;29.30;53.60;;;;;;5060740;28;20239;-70
2022/08/30 12:45:49;;;;;;;5.18;3.00;;;29.40;52.90;;;;;;5046816;28;20230;-70
2022/08/30 12:48:17;;;;;;;4.60;3.20;;;29.10;52.80;;;;;;5044829;28;20698;-70
2022/08/30 12:50:53;;;;;;;3.40;3.10;;;28.90;52.90;;;;;;5074771;28;20263;-70
2022/08/30 12:53:47;;;;;;;3.10;2.90;;;28.60;52.70;;;;;;5069066;28;20228;-70
2022/08/30 12:56:15;;;;;;;3.08;2.78;;;28.70;53.10;;;;;;5054501;28;20308;-69
2022/08/30 12:58:50;;;;;;;3.47;2.97;;;28.60;53.00;;;;;;5038951;28;20221;-70
2022/08/30 13:01:25;;;;;;;4.15;3.08;;;28.50;52.50;;;;;;5060070;28;20216;-69
2022/08/30 13:04:01;;;;;;;4.15;3.33;;;28.30;52.60;;;;;;5057528;28;20233;-69
2022/08/30 13:06:42;;;;;;;3.28;3.00;;;28.20;52.90;;;;;;5059905;28;20694;-70
2022/08/30 13:09:10;;;;;;;3.30;2.90;;;28.50;52.90;;;;;;5042951;28;20671;-70
2022/08/30 13:11:36;;;;;;;3.33;3.03;;;28.50;52.70;;;;;;5064952;28;20454;-69